Grifon 5 #- — UGMI — position and weather

sailwx.info

Track history (hours):
 
Tides and Currents Weather Stations Pressure Air Temp Water Temp Dewpoint Dewpoint Depression Visibility Wind Speed Wind Dir Waves Ship Positions

Grifon 5 #-

Last reported at 2017-Apr-23 21:30 UTC. Time now 2017-Apr-23 21:51 UTC.
Position N 59°53' E 030°11'.

Length 25 m.

Type: Ship. MMSI: 273311070.

Date/timePositionNaut miles runAvg speedWind from/ knotsBaromVisibWave heightAir tempDewpointWater temp
2017-Apr-23 21:30N 59°53' E 030°11'0 0.0
2017-Apr-23 21:00N 59°53' E 030°11'0 0.3
2017-Apr-23 20:30N 59°53' E 030°11'1 2.8
2017-Apr-23 20:00N 59°53' E 030°14'0 0.0
2017-Apr-23 19:30N 59°53' E 030°14'0 0.0
2017-Apr-23 19:00N 59°53' E 030°14'0 0.0
2017-Apr-23 18:30N 59°53' E 030°14'0 0.0
2017-Apr-23 18:00N 59°53' E 030°14'0 0.0
2017-Apr-23 17:30N 59°53' E 030°14'0 0.0
2017-Apr-23 17:00N 59°53' E 030°14'0 0.0
2017-Apr-23 16:30N 59°53' E 030°14'0 0.0
2017-Apr-23 16:00N 59°53' E 030°14'0 0.0
2017-Apr-23 15:30N 59°53' E 030°14'0 0.0
2017-Apr-23 15:00N 59°53' E 030°14'0 0.0
2017-Apr-23 14:30N 59°53' E 030°14'0 0.0
2017-Apr-23 13:30N 59°53' E 030°14'0 0.0
2017-Apr-23 13:00N 59°53' E 030°14'0 0.0
2017-Apr-23 12:30N 59°53' E 030°14'0 0.0
2017-Apr-23 12:00N 59°53' E 030°14'0 0.0
2017-Apr-23 11:30N 59°53' E 030°14'0 0.0
2017-Apr-23 11:00N 59°53' E 030°14'0 0.0
2017-Apr-23 10:31N 59°53' E 030°14'2 3.1
2017-Apr-23 10:01N 59°53' E 030°11'1 1.6
2017-Apr-23 09:31N 59°52' E 030°12'0 0.1
2017-Apr-23 09:01N 59°52' E 030°12'1 2.2
2017-Apr-23 08:30N 59°53' E 030°14'0 0.0
2017-Apr-23 08:00N 59°53' E 030°14'0 0.0
2017-Apr-23 07:30N 59°53' E 030°14'0 0.0
2017-Apr-23 07:00N 59°53' E 030°14'0 0.0
2017-Apr-23 06:30N 59°53' E 030°14'0 0.0
2017-Apr-23 06:00N 59°53' E 030°14'0 0.0
2017-Apr-23 05:30N 59°53' E 030°14'0 0.0
2017-Apr-23 05:00N 59°53' E 030°14'0 0.0
2017-Apr-23 04:30N 59°53' E 030°14'0 0.0
2017-Apr-23 04:00N 59°53' E 030°14'0 0.0
2017-Apr-23 03:30N 59°53' E 030°14'0 0.0
2017-Apr-23 03:00N 59°53' E 030°14'0 0.0
2017-Apr-23 02:30N 59°53' E 030°14'0 0.0
2017-Apr-23 02:00N 59°53' E 030°14'0 0.0
2017-Apr-23 01:30N 59°53' E 030°14'0 0.0
2017-Apr-23 01:00N 59°53' E 030°14'0 0.0
2017-Apr-23 00:30N 59°53' E 030°14'0 0.0
2017-Apr-23 00:00N 59°53' E 030°14'0 0.0
2017-Apr-22 23:30N 59°53' E 030°14'0 0.0
2017-Apr-22 23:00N 59°53' E 030°14'0 0.0
2017-Apr-22 22:30N 59°53' E 030°14'0 0.0
2017-Apr-22 22:00N 59°53' E 030°14'1 2.0
2017-Apr-22 21:30N 59°53' E 030°13'1 1.3
2017-Apr-22 21:00N 59°54' E 030°14'0 0.2
2017-Apr-22 20:30N 59°54' E 030°14'1 2.2
2017-Apr-22 20:00N 59°53' E 030°14'0 0.0
2017-Apr-22 19:31N 59°53' E 030°14'0 0.0
2017-Apr-22 19:00N 59°53' E 030°14'0 0.0
2017-Apr-22 18:31N 59°53' E 030°14'0 0.0
2017-Apr-22 18:00N 59°53' E 030°14'0 0.0
2017-Apr-22 17:31N 59°53' E 030°14'0 0.0
2017-Apr-22 17:01N 59°53' E 030°14'0 0.0
2017-Apr-22 16:31N 59°53' E 030°14'0 0.0
2017-Apr-22 16:00N 59°53' E 030°14'0 0.0
2017-Apr-22 15:31N 59°53' E 030°14'0 0.0
2017-Apr-22 15:00N 59°53' E 030°14'0 0.0
2017-Apr-22 14:00N 59°53' E 030°14'0 0.0
2017-Apr-22 13:30N 59°53' E 030°14'0 0.0
2017-Apr-22 13:00N 59°53' E 030°14'0 0.0
2017-Apr-22 12:30N 59°53' E 030°14'0 0.0
2017-Apr-22 12:00N 59°53' E 030°14'0 0.0
2017-Apr-22 11:30N 59°53' E 030°14'0 0.0
2017-Apr-22 11:00N 59°53' E 030°14'0 0.0
2017-Apr-22 10:30N 59°53' E 030°14'0 0.0
2017-Apr-22 10:00N 59°53' E 030°14'0 0.0
2017-Apr-22 09:30N 59°53' E 030°14'0 0.0
2017-Apr-22 09:00N 59°53' E 030°14'0 0.0
2017-Apr-22 08:30N 59°53' E 030°14'0 0.0
2017-Apr-22 08:00N 59°53' E 030°14'0 0.0
2017-Apr-22 07:30N 59°53' E 030°14'0 0.0
2017-Apr-22 07:00N 59°53' E 030°14'0 0.0
2017-Apr-22 06:30N 59°53' E 030°14'0 0.0
2017-Apr-22 06:00N 59°53' E 030°14'0 0.0
2017-Apr-22 05:30N 59°53' E 030°14'0 0.0
2017-Apr-22 05:00N 59°53' E 030°14'1 1.4
2017-Apr-22 04:30N 59°53' E 030°13'1 2.0
2017-Apr-22 04:00N 59°53' E 030°11'0 0.2
2017-Apr-22 03:30N 59°53' E 030°11'1 2.3
2017-Apr-22 03:00N 59°53' E 030°14'0 0.7
2017-Apr-22 02:30N 59°53' E 030°14'0 0.0
2017-Apr-22 02:00N 59°53' E 030°14'0 0.0
2017-Apr-22 01:30N 59°53' E 030°14'0 0.0
2017-Apr-22 01:00N 59°53' E 030°14'0 0.0
2017-Apr-22 00:30N 59°53' E 030°14'0 0.0
2017-Apr-22 00:00N 59°53' E 030°14'0 0.0
2017-Apr-21 23:30N 59°53' E 030°14'0 0.0
2017-Apr-21 23:00N 59°53' E 030°14'0 0.0
2017-Apr-21 22:30N 59°53' E 030°14'0 0.0
2017-Apr-21 22:00N 59°53' E 030°14'0 0.0
2017-Apr-21 21:30N 59°53' E 030°14'0 0.0
2017-Apr-21 21:00N 59°53' E 030°14'0 0.0
2017-Apr-21 20:30N 59°53' E 030°14'0 0.0
2017-Apr-21 20:00N 59°53' E 030°14'1 1.2
2017-Apr-21 19:30N 59°53' E 030°13'2 4.1
2017-Apr-21 19:00N 59°55' E 030°15'0 0.1
2017-Apr-21 18:30N 59°55' E 030°15'0 0.0
2017-Apr-21 18:00N 59°55' E 030°15'3 5.0
2017-Apr-21 17:30N 59°53' E 030°11'0 0.8
2017-Apr-21 17:00N 59°53' E 030°12'1 2.4
2017-Apr-21 16:30N 59°53' E 030°14'0 0.0
2017-Apr-21 16:00N 59°53' E 030°14'0 0.0
2017-Apr-21 15:30N 59°53' E 030°14'0 0.0
2017-Apr-21 15:00N 59°53' E 030°14'0 0.0
2017-Apr-21 14:00N 59°53' E 030°14'0 0.0
2017-Apr-21 13:30N 59°53' E 030°14'0 0.0
2017-Apr-21 13:00N 59°53' E 030°14'0 0.0
2017-Apr-21 12:30N 59°53' E 030°14'0 0.0
2017-Apr-21 12:00N 59°53' E 030°14'0 0.0
2017-Apr-21 11:30N 59°53' E 030°14'0 0.0
2017-Apr-21 11:00N 59°53' E 030°14'0 0.0
2017-Apr-21 10:30N 59°53' E 030°14'0 0.0
2017-Apr-21 10:00N 59°53' E 030°14'0 0.0
2017-Apr-21 09:30N 59°53' E 030°14'0 0.0
2017-Apr-21 09:00N 59°53' E 030°14'0 0.0
2017-Apr-21 08:30N 59°53' E 030°14'0 0.0
2017-Apr-21 08:00N 59°53' E 030°14'0 0.0
2017-Apr-21 07:30N 59°53' E 030°14'0 0.0
2017-Apr-21 07:00N 59°53' E 030°14'0 0.0
2017-Apr-21 06:30N 59°53' E 030°14'0 0.0
2017-Apr-21 06:00N 59°53' E 030°14'0 0.0
2017-Apr-21 05:30N 59°53' E 030°14'0 0.0
2017-Apr-21 05:00N 59°53' E 030°14'0 0.0
2017-Apr-21 04:30N 59°53' E 030°14'0 0.0
2017-Apr-21 04:00N 59°53' E 030°14'0 0.0
2017-Apr-21 03:30N 59°53' E 030°14'0 0.0
2017-Apr-21 03:00N 59°53' E 030°14'1 2.0
2017-Apr-21 02:30N 59°53' E 030°13'1 2.0
2017-Apr-21 02:00N 59°53' E 030°11'2 3.4
2017-Apr-21 01:30N 59°53' E 030°14'0 0.0
2017-Apr-21 01:00N 59°53' E 030°14'0 0.0
2017-Apr-21 00:30N 59°53' E 030°14'0 0.0
2017-Apr-21 00:00N 59°53' E 030°14'0 0.0
2017-Apr-20 23:30N 59°53' E 030°14'0 0.0
2017-Apr-20 23:00N 59°53' E 030°14'0 0.0
2017-Apr-20 22:30N 59°53' E 030°14'0 0.0
2017-Apr-20 22:00N 59°53' E 030°14'0 0.0
2017-Apr-20 21:30N 59°53' E 030°14'0 0.0
2017-Apr-20 21:00N 59°53' E 030°14'0 0.0
2017-Apr-20 20:30N 59°53' E 030°14'0 0.0
2017-Apr-20 20:00N 59°53' E 030°14'0 0.0
2017-Apr-20 19:30N 59°53' E 030°14'0 0.0
2017-Apr-20 19:00N 59°53' E 030°14'0 0.0
2017-Apr-20 18:30N 59°53' E 030°14'0 0.0
2017-Apr-20 18:00N 59°53' E 030°14'0 0.0
2017-Apr-20 17:30N 59°53' E 030°14'0 0.0
2017-Apr-20 17:00N 59°53' E 030°14'0 0.0
2017-Apr-20 16:30N 59°53' E 030°14'0 0.0
2017-Apr-20 16:00N 59°53' E 030°14'0 0.0
2017-Apr-20 15:30N 59°53' E 030°14'0 0.0
2017-Apr-20 15:00N 59°53' E 030°14'0 0.0
2017-Apr-20 14:30N 59°53' E 030°14'0 0.0
2017-Apr-20 13:30N 59°53' E 030°14'0 0.0
2017-Apr-20 13:00N 59°53' E 030°14'0 0.0
2017-Apr-20 12:30N 59°53' E 030°14'0 0.0
2017-Apr-20 12:00N 59°53' E 030°14'0 0.0
2017-Apr-20 11:30N 59°53' E 030°14'0 0.0
2017-Apr-20 11:00N 59°53' E 030°14'0 0.0
2017-Apr-20 10:30N 59°53' E 030°14'0 0.0
2017-Apr-20 10:00N 59°53' E 030°14'0 0.0
2017-Apr-20 09:29N 59°53' E 030°14'1 1.1
2017-Apr-20 09:00N 59°53' E 030°13'1 1.6
2017-Apr-20 08:30N 59°53' E 030°13'0 0.2
2017-Apr-20 08:00N 59°54' E 030°13'0 0.1
2017-Apr-20 07:30N 59°53' E 030°13'1 2.1
2017-Apr-20 07:00N 59°53' E 030°14'0 0.0
2017-Apr-20 06:30N 59°53' E 030°14'0 0.0
2017-Apr-20 06:00N 59°53' E 030°14'0 0.0
2017-Apr-20 05:30N 59°53' E 030°14'0 0.0
2017-Apr-20 05:00N 59°53' E 030°14'0 0.0
2017-Apr-20 04:30N 59°53' E 030°14'0 0.0
2017-Apr-20 04:00N 59°53' E 030°14'0 0.0
2017-Apr-20 03:31N 59°53' E 030°14'0 0.0
2017-Apr-20 03:01N 59°53' E 030°14'0 0.0
2017-Apr-20 02:30N 59°53' E 030°14'0 0.0
2017-Apr-20 02:01N 59°53' E 030°14'0 0.0
2017-Apr-20 01:31N 59°53' E 030°14'0 0.0
2017-Apr-20 01:00N 59°53' E 030°14'0 0.0
2017-Apr-20 00:31N 59°53' E 030°14'0 0.0
2017-Apr-20 00:00N 59°53' E 030°14'0 0.0
2017-Apr-19 23:30N 59°53' E 030°14'0 0.0
2017-Apr-19 23:00N 59°53' E 030°14'0 0.0
2017-Apr-19 22:30N 59°53' E 030°14'0 0.0
2017-Apr-19 22:00N 59°53' E 030°14'0 0.0
2017-Apr-19 21:30N 59°53' E 030°14'0 0.0
2017-Apr-19 21:00N 59°53' E 030°14'0 0.0
2017-Apr-19 20:30N 59°53' E 030°14'0 0.0
2017-Apr-19 20:00N 59°53' E 030°14'0 0.0
2017-Apr-19 19:30N 59°53' E 030°14'0 0.0
2017-Apr-19 19:00N 59°53' E 030°14'0 0.0
2017-Apr-19 18:30N 59°53' E 030°14'0 0.0
2017-Apr-19 18:00N 59°53' E 030°14'0 0.0
2017-Apr-19 17:30N 59°53' E 030°14'0 0.0
2017-Apr-19 17:00N 59°53' E 030°14'0 0.0
2017-Apr-19 16:30N 59°53' E 030°14'0 0.0
2017-Apr-19 16:00N 59°53' E 030°14'0 0.0
2017-Apr-19 15:30N 59°53' E 030°14'0 0.0
2017-Apr-19 15:00N 59°53' E 030°14'0 0.0
2017-Apr-19 14:30N 59°53' E 030°14'0 0.0
2017-Apr-19 13:30N 59°53' E 030°14'0 0.0
2017-Apr-19 12:59N 59°53' E 030°14'0 0.0
2017-Apr-19 12:30N 59°53' E 030°14'0 0.0
2017-Apr-19 12:00N 59°53' E 030°14'0 0.0
2017-Apr-19 11:30N 59°53' E 030°14'0 0.0
2017-Apr-19 11:00N 59°53' E 030°14'0 0.0
2017-Apr-19 10:31N 59°53' E 030°14'0 0.0
2017-Apr-19 10:01N 59°53' E 030°14'0 0.0
2017-Apr-19 09:31N 59°53' E 030°14'0 0.0
2017-Apr-19 09:01N 59°53' E 030°14'0 0.0
2017-Apr-19 08:30N 59°53' E 030°14'0 0.0
2017-Apr-19 08:00N 59°53' E 030°14'0 0.0
2017-Apr-19 07:30N 59°53' E 030°14'0 0.0
2017-Apr-19 07:01N 59°53' E 030°14'0 0.0
2017-Apr-19 06:31N 59°53' E 030°14'0 0.0
2017-Apr-19 06:01N 59°53' E 030°14'0 0.0
2017-Apr-19 05:31N 59°53' E 030°14'0 0.0
2017-Apr-19 05:01N 59°53' E 030°14'0 0.0
2017-Apr-19 04:31N 59°53' E 030°14'0 0.0
2017-Apr-19 04:01N 59°53' E 030°14'0 0.0
2017-Apr-19 03:31N 59°53' E 030°14'0 0.0
2017-Apr-19 03:00N 59°53' E 030°14'0 0.0
2017-Apr-19 02:30N 59°53' E 030°14'0 0.0
2017-Apr-19 02:00N 59°53' E 030°14'0 0.0
2017-Apr-19 01:30N 59°53' E 030°14'0 0.0
2017-Apr-19 01:00N 59°53' E 030°14'0 0.0
2017-Apr-19 00:30N 59°53' E 030°14'0 0.0
2017-Apr-19 00:00N 59°53' E 030°14'0 0.0
2017-Apr-18 23:30N 59°53' E 030°14'0 0.0
2017-Apr-18 23:00N 59°53' E 030°14'0 0.0
2017-Apr-18 22:30N 59°53' E 030°14'2 3.4
2017-Apr-18 22:00N 59°53' E 030°11'0 0.9
2017-Apr-18 21:30N 59°53' E 030°11'0 0.1
2017-Apr-18 21:00N 59°53' E 030°11'0 0.0
2017-Apr-18 20:30N 59°53' E 030°11'1 3.0
2017-Apr-18 20:00N 59°53' E 030°14'0 0.0
2017-Apr-18 19:30N 59°53' E 030°14'0 0.0
2017-Apr-18 19:01N 59°53' E 030°14'0 0.0
2017-Apr-18 18:30N 59°53' E 030°14'0 0.0
2017-Apr-18 18:00N 59°53' E 030°14'0 0.0
2017-Apr-18 17:30N 59°53' E 030°14'0 0.0
2017-Apr-18 17:00N 59°53' E 030°14'0 0.0
2017-Apr-18 16:30N 59°53' E 030°14'0 0.0
2017-Apr-18 16:00N 59°53' E 030°14'0 0.0
2017-Apr-18 15:30N 59°53' E 030°14'0 0.0
2017-Apr-18 14:59N 59°53' E 030°14'0 0.0
2017-Apr-18 14:00N 59°53' E 030°14'0 0.0
2017-Apr-18 13:30N 59°53' E 030°14'0 0.0
2017-Apr-18 13:00N 59°53' E 030°14'0 0.0
2017-Apr-18 12:30N 59°53' E 030°14'0 0.0
2017-Apr-18 12:00N 59°53' E 030°14'0 0.0
2017-Apr-18 11:30N 59°53' E 030°14'0 0.0
2017-Apr-18 11:00N 59°53' E 030°14'0 0.0
2017-Apr-18 10:30N 59°53' E 030°14'0 0.0
2017-Apr-18 10:00N 59°53' E 030°14'0 1.0
2017-Apr-18 09:30N 59°53' E 030°13'1 1.6
2017-Apr-18 09:00N 59°52' E 030°13'0 0.0
2017-Apr-18 08:30N 59°52' E 030°13'0 0.0
2017-Apr-18 08:00N 59°52' E 030°13'0 0.0
2017-Apr-18 07:31N 59°52' E 030°13'1 1.8
2017-Apr-18 07:00N 59°53' E 030°13'1 1.1
2017-Apr-18 06:31N 59°53' E 030°14'0 0.0
2017-Apr-18 06:00N 59°53' E 030°14'0 0.0
2017-Apr-18 05:30N 59°53' E 030°14'0 0.0
2017-Apr-18 05:01N 59°53' E 030°14'0 0.0
2017-Apr-18 04:30N 59°53' E 030°14'0 0.0
2017-Apr-18 04:00N 59°53' E 030°14'0 0.0
2017-Apr-18 03:30N 59°53' E 030°14'0 0.0
2017-Apr-18 03:00N 59°53' E 030°14'0 0.0
2017-Apr-18 02:30N 59°53' E 030°14'0 0.0
2017-Apr-18 02:00N 59°53' E 030°14'0 0.0
2017-Apr-18 01:30N 59°53' E 030°14'0 0.0
2017-Apr-18 01:00N 59°53' E 030°14'0 0.0
2017-Apr-18 00:30N 59°53' E 030°14'0 0.0
2017-Apr-18 00:00N 59°53' E 030°14'0 0.0
2017-Apr-17 23:30N 59°53' E 030°14'0 0.0
2017-Apr-17 23:00N 59°53' E 030°14'0 0.0
2017-Apr-17 22:30N 59°53' E 030°14'0 0.0
2017-Apr-17 22:00N 59°53' E 030°14'0 0.0
2017-Apr-17 21:30N 59°53' E 030°14'0 0.0
2017-Apr-17 21:00N 59°53' E 030°14'0 0.0
2017-Apr-17 20:30N 59°53' E 030°14'0 0.0
2017-Apr-17 20:00N 59°53' E 030°14'0 0.0
2017-Apr-17 19:30N 59°53' E 030°14'0 0.0
2017-Apr-17 19:00N 59°53' E 030°14'0 0.0
2017-Apr-17 18:30N 59°53' E 030°14'0 0.0
2017-Apr-17 18:00N 59°53' E 030°14'0 0.0
2017-Apr-17 17:30N 59°53' E 030°14'0 0.0
2017-Apr-17 17:00N 59°53' E 030°14'0 0.0
2017-Apr-17 16:30N 59°53' E 030°14'1 2.1
2017-Apr-17 16:00N 59°53' E 030°13'1 1.7
2017-Apr-17 15:30N 59°53' E 030°11'0 1.0
2017-Apr-17 15:00N 59°53' E 030°11'2 1.9
2017-Apr-17 14:00N 59°53' E 030°14'0 0.0
2017-Apr-17 13:30N 59°53' E 030°14'0 0.0
2017-Apr-17 13:00N 59°53' E 030°14'0 0.0
2017-Apr-17 12:30N 59°53' E 030°14'0 0.0
2017-Apr-17 12:00N 59°53' E 030°14'0 0.0
2017-Apr-17 11:30N 59°53' E 030°14'0 0.0
2017-Apr-17 11:00N 59°53' E 030°14'0 0.0
2017-Apr-17 10:30N 59°53' E 030°14'0 0.0
2017-Apr-17 10:00N 59°53' E 030°14'0 0.0
2017-Apr-17 09:30N 59°53' E 030°14'0 0.0
2017-Apr-17 09:00N 59°53' E 030°14'1 1.9
2017-Apr-17 08:30N 59°52' E 030°13'0 0.0
2017-Apr-17 08:00N 59°52' E 030°13'1 1.6
2017-Apr-17 07:30N 59°53' E 030°13'0 1.0
2017-Apr-17 07:00N 59°53' E 030°14'0 0.0
2017-Apr-17 06:30N 59°53' E 030°14'0 0.0
2017-Apr-17 06:00N 59°53' E 030°14'0 0.0
2017-Apr-17 05:30N 59°53' E 030°14'0 0.0
2017-Apr-17 05:00N 59°53' E 030°14'0 0.0
2017-Apr-17 04:30N 59°53' E 030°14'0 0.0
2017-Apr-17 04:00N 59°53' E 030°14'0 0.0
2017-Apr-17 03:29N 59°53' E 030°14'0 0.0
2017-Apr-17 03:00N 59°53' E 030°14'0 0.0
2017-Apr-17 02:30N 59°53' E 030°14'0 0.0
2017-Apr-17 02:01N 59°53' E 030°14'0 0.0
2017-Apr-17 01:31N 59°53' E 030°14'0 0.0
2017-Apr-17 01:00N 59°53' E 030°14'0 0.0
2017-Apr-17 00:31N 59°53' E 030°14'0 0.0
2017-Apr-17 00:01N 59°53' E 030°14'0 0.0
2017-Apr-16 23:30N 59°53' E 030°14'0 0.0
2017-Apr-16 23:00N 59°53' E 030°14'0 0.0
2017-Apr-16 22:31N 59°53' E 030°14'0 0.0
2017-Apr-16 22:01N 59°53' E 030°14'0 0.0
2017-Apr-16 21:31N 59°53' E 030°14'0 0.0
2017-Apr-16 21:00N 59°53' E 030°14'0 0.0
2017-Apr-16 20:31N 59°53' E 030°14'0 0.0
2017-Apr-16 19:59N 59°53' E 030°14'0 0.0
2017-Apr-16 19:29N 59°53' E 030°14'0 0.0
2017-Apr-16 19:01N 59°53' E 030°14'0 0.0
2017-Apr-16 18:30N 59°53' E 030°14'0 0.0
2017-Apr-16 18:01N 59°53' E 030°14'0 0.0
2017-Apr-16 17:30N 59°53' E 030°14'0 0.0
2017-Apr-16 17:00N 59°53' E 030°14'0 0.0
2017-Apr-16 16:30N 59°53' E 030°14'0 0.0
2017-Apr-16 16:00N 59°53' E 030°14'0 0.0
2017-Apr-16 15:30N 59°53' E 030°14'0 0.0
2017-Apr-16 15:00N 59°53' E 030°14'0 0.0
2017-Apr-16 14:30N 59°53' E 030°14'0 0.0
2017-Apr-16 13:30N 59°53' E 030°14'0 0.0
2017-Apr-16 13:00N 59°53' E 030°14'0 0.0
2017-Apr-16 12:30N 59°53' E 030°14'0 0.0
2017-Apr-16 12:00N 59°53' E 030°14'0 0.0
2017-Apr-16 11:30N 59°53' E 030°14'0 0.0
2017-Apr-16 11:00N 59°53' E 030°14'0 0.0
2017-Apr-16 10:29N 59°53' E 030°14'0 0.0
2017-Apr-16 10:00N 59°53' E 030°14'0 0.0
2017-Apr-16 09:30N 59°53' E 030°14'0 0.0
2017-Apr-16 09:00N 59°53' E 030°14'0 0.0
2017-Apr-16 08:30N 59°53' E 030°14'0 0.0
2017-Apr-16 08:00N 59°53' E 030°14'0 0.0
2017-Apr-16 07:30N 59°53' E 030°14'0 0.0
2017-Apr-16 07:00N 59°53' E 030°14'0 0.0
2017-Apr-16 06:31N 59°53' E 030°14'0 0.0
2017-Apr-16 06:01N 59°53' E 030°14'0 0.0
2017-Apr-16 05:31N 59°53' E 030°14'0 0.0
2017-Apr-16 05:00N 59°53' E 030°14'0 0.0
2017-Apr-16 04:30N 59°53' E 030°14'0 0.0
2017-Apr-16 04:01N 59°53' E 030°14'0 0.0
2017-Apr-16 03:30N 59°53' E 030°14'0 0.0
2017-Apr-16 03:00N 59°53' E 030°14'0 0.0
2017-Apr-16 02:30N 59°53' E 030°14'0 0.0
2017-Apr-16 01:59N 59°53' E 030°14'0 0.0
2017-Apr-16 01:30N 59°53' E 030°14'0 0.0
2017-Apr-16 00:59N 59°53' E 030°14'0 0.0
2017-Apr-16 00:30N 59°53' E 030°14'0 0.0
2017-Apr-16 00:00N 59°53' E 030°14'0 0.0
2017-Apr-15 23:30N 59°53' E 030°14'0 0.0
2017-Apr-15 23:00N 59°53' E 030°14'0 0.0
2017-Apr-15 22:30N 59°53' E 030°14'0 0.0
2017-Apr-15 22:00N 59°53' E 030°14'0 0.0
2017-Apr-15 21:30N 59°53' E 030°14'0 0.0
2017-Apr-15 21:00N 59°53' E 030°14'0 0.0
2017-Apr-15 20:30N 59°53' E 030°14'0 0.0
2017-Apr-15 19:59N 59°53' E 030°14'0 0.0
2017-Apr-15 19:27N 59°53' E 030°14'0 0.0
2017-Apr-15 19:00N 59°53' E 030°14'0 0.0
2017-Apr-15 18:30N 59°53' E 030°14'0 0.0
2017-Apr-15 18:00N 59°53' E 030°14'0 0.0
2017-Apr-15 17:30N 59°53' E 030°14'0 0.0
2017-Apr-15 17:00N 59°53' E 030°14'0 0.0
2017-Apr-15 16:30N 59°53' E 030°14'0 0.0
2017-Apr-15 16:00N 59°53' E 030°14'0 0.0
2017-Apr-15 15:30N 59°53' E 030°14'0 0.0
2017-Apr-15 15:00N 59°53' E 030°14'0 0.0
2017-Apr-15 14:00N 59°53' E 030°14'0 0.0
2017-Apr-15 13:30N 59°53' E 030°14'0 0.0
2017-Apr-15 13:00N 59°53' E 030°14'0 0.0
2017-Apr-15 12:28N 59°53' E 030°14'0 0.0
2017-Apr-15 12:00N 59°53' E 030°14'0 0.0
2017-Apr-15 11:30N 59°53' E 030°14'0 0.0
2017-Apr-15 10:57N 59°53' E 030°14'0 0.0
2017-Apr-15 10:30N 59°53' E 030°14'0 0.0
2017-Apr-15 10:00N 59°53' E 030°14'0 0.1
2017-Apr-15 09:30N 59°53' E 030°14'0 0.0
2017-Apr-15 09:00N 59°53' E 030°14'0 0.0
2017-Apr-15 08:30N 59°53' E 030°14'0 0.0
2017-Apr-15 08:00N 59°53' E 030°14'0 0.1
2017-Apr-15 07:30N 59°53' E 030°14'0 0.0
2017-Apr-15 07:00N 59°53' E 030°14'0 0.0
2017-Apr-15 06:30N 59°53' E 030°14'0 0.0
2017-Apr-15 06:00N 59°53' E 030°14'0 0.0
2017-Apr-15 05:27N 59°53' E 030°14'0 0.0
2017-Apr-15 05:00N 59°53' E 030°14'1 2.3
2017-Apr-15 04:30N 59°53' E 030°13'1 1.1
2017-Apr-15 04:00N 59°53' E 030°12'0 0.8
2017-Apr-15 03:29N 59°53' E 030°11'2 3.7
2017-Apr-15 03:00N 59°53' E 030°14'0 0.0
2017-Apr-15 02:30N 59°53' E 030°14'0 0.0
2017-Apr-15 02:00N 59°53' E 030°14'0 0.0
2017-Apr-15 01:27N 59°53' E 030°14'0 0.0
2017-Apr-15 01:00N 59°53' E 030°14'0 0.0
2017-Apr-15 00:30N 59°53' E 030°14'0 0.0
2017-Apr-15 00:00N 59°53' E 030°14'0 0.0
2017-Apr-14 23:30N 59°53' E 030°14'0 0.0
2017-Apr-14 23:00N 59°53' E 030°14'0 0.0
2017-Apr-14 22:30N 59°53' E 030°14'0 0.0
2017-Apr-14 22:00N 59°53' E 030°14'0 0.0
2017-Apr-14 21:30N 59°53' E 030°14'0 0.0
2017-Apr-14 21:00N 59°53' E 030°14'0 0.0
2017-Apr-14 20:28N 59°53' E 030°14'0 0.0
2017-Apr-14 20:00N 59°53' E 030°14'0 0.0
2017-Apr-14 19:30N 59°53' E 030°14'0 0.0
2017-Apr-14 19:00N 59°53' E 030°14'0 0.0
2017-Apr-14 18:28N 59°53' E 030°14'0 0.0
2017-Apr-14 18:00N 59°53' E 030°14'0 0.0
2017-Apr-14 17:30N 59°53' E 030°14'0 0.0
2017-Apr-14 16:55N 59°53' E 030°14'0 0.0
2017-Apr-14 16:31N 59°53' E 030°14'0 0.0
2017-Apr-14 15:58N 59°53' E 030°14'0 0.0
2017-Apr-14 15:31N 59°53' E 030°14'0 0.0
2017-Apr-14 15:00N 59°53' E 030°14'0 0.0
2017-Apr-14 14:31N 59°53' E 030°14'0 0.0
2017-Apr-14 13:30N 59°53' E 030°14'0 0.0
2017-Apr-14 13:00N 59°53' E 030°14'0 0.0
2017-Apr-14 12:30N 59°53' E 030°14'0 0.0
2017-Apr-14 12:00N 59°53' E 030°14'0 0.0
2017-Apr-14 11:30N 59°53' E 030°14'0 0.0
2017-Apr-14 11:00N 59°53' E 030°14'0 0.0
2017-Apr-14 10:29N 59°53' E 030°14'0 0.0
2017-Apr-14 09:59N 59°53' E 030°14'0 0.0
2017-Apr-14 09:30N 59°53' E 030°14'0 0.0
2017-Apr-14 09:00N 59°53' E 030°14'0 0.0
2017-Apr-14 08:30N 59°53' E 030°14'0 0.0
2017-Apr-14 08:00N 59°53' E 030°14'0 0.0
2017-Apr-14 07:30N 59°53' E 030°14'0 0.0
2017-Apr-14 07:00N 59°53' E 030°14'0 0.0
2017-Apr-14 06:30N 59°53' E 030°14'0 0.0
2017-Apr-14 06:00N 59°53' E 030°14'0 0.0
2017-Apr-14 05:30N 59°53' E 030°14'0 0.0
2017-Apr-14 05:00N 59°53' E 030°14'0 0.0
2017-Apr-14 04:30N 59°53' E 030°14'0 0.0
2017-Apr-14 04:00N 59°53' E 030°14'0 0.0
2017-Apr-14 03:30N 59°53' E 030°14'0 0.0
2017-Apr-14 03:00N 59°53' E 030°14'0 0.0
2017-Apr-14 02:30N 59°53' E 030°14'0 0.0
2017-Apr-14 02:00N 59°53' E 030°14'0 0.0
2017-Apr-14 01:30N 59°53' E 030°14'0 0.0
2017-Apr-14 01:00N 59°53' E 030°14'0 0.0
2017-Apr-14 00:30N 59°53' E 030°14'0 0.0
2017-Apr-14 00:00N 59°53' E 030°14'0 0.0
2017-Apr-13 23:30N 59°53' E 030°14'0 0.0
2017-Apr-13 23:00N 59°53' E 030°14'0 0.0
2017-Apr-13 22:30N 59°53' E 030°14'0 0.0
2017-Apr-13 22:00N 59°53' E 030°14'0 0.0
2017-Apr-13 21:30N 59°53' E 030°14'  
Track history (hours):
 
Tides and Currents Weather Stations Pressure Air Temp Water Temp Dewpoint Dewpoint Depression Visibility Wind Speed Wind Dir Waves Ship Positions

Grifon 5 #-

Last reported at 2017-Apr-23 21:30 UTC. Time now 2017-Apr-23 21:51 UTC.
Position N 59°53' E 030°11'.

Length 25 m.

Type: Ship. MMSI: 273311070.

Date/timePositionNaut miles runAvg speedWind from/ knotsBaromVisibWave heightAir tempDewpointWater temp
2017-Apr-23 21:30N 59°53' E 030°11'0 0.0
2017-Apr-23 21:00N 59°53' E 030°11'0 0.3
2017-Apr-23 20:30N 59°53' E 030°11'1 2.8
2017-Apr-23 20:00N 59°53' E 030°14'0 0.0
2017-Apr-23 19:30N 59°53' E 030°14'0 0.0
2017-Apr-23 19:00N 59°53' E 030°14'0 0.0
2017-Apr-23 18:30N 59°53' E 030°14'0 0.0
2017-Apr-23 18:00N 59°53' E 030°14'0 0.0
2017-Apr-23 17:30N 59°53' E 030°14'0 0.0
2017-Apr-23 17:00N 59°53' E 030°14'0 0.0
2017-Apr-23 16:30N 59°53' E 030°14'0 0.0
2017-Apr-23 16:00N 59°53' E 030°14'0 0.0
2017-Apr-23 15:30N 59°53' E 030°14'0 0.0
2017-Apr-23 15:00N 59°53' E 030°14'0 0.0
2017-Apr-23 14:30N 59°53' E 030°14'0 0.0
2017-Apr-23 13:30N 59°53' E 030°14'0 0.0
2017-Apr-23 13:00N 59°53' E 030°14'0 0.0
2017-Apr-23 12:30N 59°53' E 030°14'0 0.0
2017-Apr-23 12:00N 59°53' E 030°14'0 0.0
2017-Apr-23 11:30N 59°53' E 030°14'0 0.0
2017-Apr-23 11:00N 59°53' E 030°14'0 0.0
2017-Apr-23 10:31N 59°53' E 030°14'2 3.1
2017-Apr-23 10:01N 59°53' E 030°11'1 1.6
2017-Apr-23 09:31N 59°52' E 030°12'0 0.1
2017-Apr-23 09:01N 59°52' E 030°12'1 2.2
2017-Apr-23 08:30N 59°53' E 030°14'0 0.0
2017-Apr-23 08:00N 59°53' E 030°14'0 0.0
2017-Apr-23 07:30N 59°53' E 030°14'0 0.0
2017-Apr-23 07:00N 59°53' E 030°14'0 0.0
2017-Apr-23 06:30N 59°53' E 030°14'0 0.0
2017-Apr-23 06:00N 59°53' E 030°14'0 0.0
2017-Apr-23 05:30N 59°53' E 030°14'0 0.0
2017-Apr-23 05:00N 59°53' E 030°14'0 0.0
2017-Apr-23 04:30N 59°53' E 030°14'0 0.0
2017-Apr-23 04:00N 59°53' E 030°14'0 0.0
2017-Apr-23 03:30N 59°53' E 030°14'0 0.0
2017-Apr-23 03:00N 59°53' E 030°14'0 0.0
2017-Apr-23 02:30N 59°53' E 030°14'0 0.0
2017-Apr-23 02:00N 59°53' E 030°14'0 0.0
2017-Apr-23 01:30N 59°53' E 030°14'0 0.0
2017-Apr-23 01:00N 59°53' E 030°14'0 0.0
2017-Apr-23 00:30N 59°53' E 030°14'0 0.0
2017-Apr-23 00:00N 59°53' E 030°14'0 0.0
2017-Apr-22 23:30N 59°53' E 030°14'0 0.0
2017-Apr-22 23:00N 59°53' E 030°14'0 0.0
2017-Apr-22 22:30N 59°53' E 030°14'0 0.0
2017-Apr-22 22:00N 59°53' E 030°14'1 2.0
2017-Apr-22 21:30N 59°53' E 030°13'1 1.3
2017-Apr-22 21:00N 59°54' E 030°14'0 0.2
2017-Apr-22 20:30N 59°54' E 030°14'1 2.2
2017-Apr-22 20:00N 59°53' E 030°14'0 0.0
2017-Apr-22 19:31N 59°53' E 030°14'0 0.0
2017-Apr-22 19:00N 59°53' E 030°14'0 0.0
2017-Apr-22 18:31N 59°53' E 030°14'0 0.0
2017-Apr-22 18:00N 59°53' E 030°14'0 0.0
2017-Apr-22 17:31N 59°53' E 030°14'0 0.0
2017-Apr-22 17:01N 59°53' E 030°14'0 0.0
2017-Apr-22 16:31N 59°53' E 030°14'0 0.0
2017-Apr-22 16:00N 59°53' E 030°14'0 0.0
2017-Apr-22 15:31N 59°53' E 030°14'0 0.0
2017-Apr-22 15:00N 59°53' E 030°14'0 0.0
2017-Apr-22 14:00N 59°53' E 030°14'0 0.0
2017-Apr-22 13:30N 59°53' E 030°14'0 0.0
2017-Apr-22 13:00N 59°53' E 030°14'0 0.0
2017-Apr-22 12:30N 59°53' E 030°14'0 0.0
2017-Apr-22 12:00N 59°53' E 030°14'0 0.0
2017-Apr-22 11:30N 59°53' E 030°14'0 0.0
2017-Apr-22 11:00N 59°53' E 030°14'0 0.0
2017-Apr-22 10:30N 59°53' E 030°14'0 0.0
2017-Apr-22 10:00N 59°53' E 030°14'0 0.0
2017-Apr-22 09:30N 59°53' E 030°14'0 0.0
2017-Apr-22 09:00N 59°53' E 030°14'0 0.0
2017-Apr-22 08:30N 59°53' E 030°14'0 0.0
2017-Apr-22 08:00N 59°53' E 030°14'0 0.0
2017-Apr-22 07:30N 59°53' E 030°14'0 0.0
2017-Apr-22 07:00N 59°53' E 030°14'0 0.0
2017-Apr-22 06:30N 59°53' E 030°14'0 0.0
2017-Apr-22 06:00N 59°53' E 030°14'0 0.0
2017-Apr-22 05:30N 59°53' E 030°14'0 0.0
2017-Apr-22 05:00N 59°53' E 030°14'1 1.4
2017-Apr-22 04:30N 59°53' E 030°13'1 2.0
2017-Apr-22 04:00N 59°53' E 030°11'0 0.2
2017-Apr-22 03:30N 59°53' E 030°11'1 2.3
2017-Apr-22 03:00N 59°53' E 030°14'0 0.7
2017-Apr-22 02:30N 59°53' E 030°14'0 0.0
2017-Apr-22 02:00N 59°53' E 030°14'0 0.0
2017-Apr-22 01:30N 59°53' E 030°14'0 0.0
2017-Apr-22 01:00N 59°53' E 030°14'0 0.0
2017-Apr-22 00:30N 59°53' E 030°14'0 0.0
2017-Apr-22 00:00N 59°53' E 030°14'0 0.0
2017-Apr-21 23:30N 59°53' E 030°14'0 0.0
2017-Apr-21 23:00N 59°53' E 030°14'0 0.0
2017-Apr-21 22:30N 59°53' E 030°14'0 0.0
2017-Apr-21 22:00N 59°53' E 030°14'0 0.0
2017-Apr-21 21:30N 59°53' E 030°14'0 0.0
2017-Apr-21 21:00N 59°53' E 030°14'0 0.0
2017-Apr-21 20:30N 59°53' E 030°14'0 0.0
2017-Apr-21 20:00N 59°53' E 030°14'1 1.2
2017-Apr-21 19:30N 59°53' E 030°13'2 4.1
2017-Apr-21 19:00N 59°55' E 030°15'0 0.1
2017-Apr-21 18:30N 59°55' E 030°15'0 0.0
2017-Apr-21 18:00N 59°55' E 030°15'3 5.0
2017-Apr-21 17:30N 59°53' E 030°11'0 0.8
2017-Apr-21 17:00N 59°53' E 030°12'1 2.4
2017-Apr-21 16:30N 59°53' E 030°14'0 0.0
2017-Apr-21 16:00N 59°53' E 030°14'0 0.0
2017-Apr-21 15:30N 59°53' E 030°14'0 0.0
2017-Apr-21 15:00N 59°53' E 030°14'0 0.0
2017-Apr-21 14:00N 59°53' E 030°14'0 0.0
2017-Apr-21 13:30N 59°53' E 030°14'0 0.0
2017-Apr-21 13:00N 59°53' E 030°14'0 0.0
2017-Apr-21 12:30N 59°53' E 030°14'0 0.0
2017-Apr-21 12:00N 59°53' E 030°14'0 0.0
2017-Apr-21 11:30N 59°53' E 030°14'0 0.0
2017-Apr-21 11:00N 59°53' E 030°14'0 0.0
2017-Apr-21 10:30N 59°53' E 030°14'0 0.0
2017-Apr-21 10:00N 59°53' E 030°14'0 0.0
2017-Apr-21 09:30N 59°53' E 030°14'0 0.0
2017-Apr-21 09:00N 59°53' E 030°14'0 0.0
2017-Apr-21 08:30N 59°53' E 030°14'0 0.0
2017-Apr-21 08:00N 59°53' E 030°14'0 0.0
2017-Apr-21 07:30N 59°53' E 030°14'0 0.0
2017-Apr-21 07:00N 59°53' E 030°14'0 0.0
2017-Apr-21 06:30N 59°53' E 030°14'0 0.0
2017-Apr-21 06:00N 59°53' E 030°14'0 0.0
2017-Apr-21 05:30N 59°53' E 030°14'0 0.0
2017-Apr-21 05:00N 59°53' E 030°14'0 0.0
2017-Apr-21 04:30N 59°53' E 030°14'0 0.0
2017-Apr-21 04:00N 59°53' E 030°14'0 0.0
2017-Apr-21 03:30N 59°53' E 030°14'0 0.0
2017-Apr-21 03:00N 59°53' E 030°14'1 2.0
2017-Apr-21 02:30N 59°53' E 030°13'1 2.0
2017-Apr-21 02:00N 59°53' E 030°11'2 3.4
2017-Apr-21 01:30N 59°53' E 030°14'0 0.0
2017-Apr-21 01:00N 59°53' E 030°14'0 0.0
2017-Apr-21 00:30N 59°53' E 030°14'0 0.0
2017-Apr-21 00:00N 59°53' E 030°14'0 0.0
2017-Apr-20 23:30N 59°53' E 030°14'0 0.0
2017-Apr-20 23:00N 59°53' E 030°14'0 0.0
2017-Apr-20 22:30N 59°53' E 030°14'0 0.0
2017-Apr-20 22:00N 59°53' E 030°14'0 0.0
2017-Apr-20 21:30N 59°53' E 030°14'0 0.0
2017-Apr-20 21:00N 59°53' E 030°14'0 0.0
2017-Apr-20 20:30N 59°53' E 030°14'0 0.0
2017-Apr-20 20:00N 59°53' E 030°14'0 0.0
2017-Apr-20 19:30N 59°53' E 030°14'0 0.0
2017-Apr-20 19:00N 59°53' E 030°14'0 0.0
2017-Apr-20 18:30N 59°53' E 030°14'0 0.0
2017-Apr-20 18:00N 59°53' E 030°14'0 0.0
2017-Apr-20 17:30N 59°53' E 030°14'0 0.0
2017-Apr-20 17:00N 59°53' E 030°14'0 0.0
2017-Apr-20 16:30N 59°53' E 030°14'0 0.0
2017-Apr-20 16:00N 59°53' E 030°14'0 0.0
2017-Apr-20 15:30N 59°53' E 030°14'0 0.0
2017-Apr-20 15:00N 59°53' E 030°14'0 0.0
2017-Apr-20 14:30N 59°53' E 030°14'0 0.0
2017-Apr-20 13:30N 59°53' E 030°14'0 0.0
2017-Apr-20 13:00N 59°53' E 030°14'0 0.0
2017-Apr-20 12:30N 59°53' E 030°14'0 0.0
2017-Apr-20 12:00N 59°53' E 030°14'0 0.0
2017-Apr-20 11:30N 59°53' E 030°14'0 0.0
2017-Apr-20 11:00N 59°53' E 030°14'0 0.0
2017-Apr-20 10:30N 59°53' E 030°14'0 0.0
2017-Apr-20 10:00N 59°53' E 030°14'0 0.0
2017-Apr-20 09:29N 59°53' E 030°14'1 1.1
2017-Apr-20 09:00N 59°53' E 030°13'1 1.6
2017-Apr-20 08:30N 59°53' E 030°13'0 0.2
2017-Apr-20 08:00N 59°54' E 030°13'0 0.1
2017-Apr-20 07:30N 59°53' E 030°13'1 2.1
2017-Apr-20 07:00N 59°53' E 030°14'0 0.0
2017-Apr-20 06:30N 59°53' E 030°14'0 0.0
2017-Apr-20 06:00N 59°53' E 030°14'0 0.0
2017-Apr-20 05:30N 59°53' E 030°14'0 0.0
2017-Apr-20 05:00N 59°53' E 030°14'0 0.0
2017-Apr-20 04:30N 59°53' E 030°14'0 0.0
2017-Apr-20 04:00N 59°53' E 030°14'0 0.0
2017-Apr-20 03:31N 59°53' E 030°14'0 0.0
2017-Apr-20 03:01N 59°53' E 030°14'0 0.0
2017-Apr-20 02:30N 59°53' E 030°14'0 0.0
2017-Apr-20 02:01N 59°53' E 030°14'0 0.0
2017-Apr-20 01:31N 59°53' E 030°14'0 0.0
2017-Apr-20 01:00N 59°53' E 030°14'0 0.0
2017-Apr-20 00:31N 59°53' E 030°14'0 0.0
2017-Apr-20 00:00N 59°53' E 030°14'0 0.0
2017-Apr-19 23:30N 59°53' E 030°14'0 0.0
2017-Apr-19 23:00N 59°53' E 030°14'0 0.0
2017-Apr-19 22:30N 59°53' E 030°14'0 0.0
2017-Apr-19 22:00N 59°53' E 030°14'0 0.0
2017-Apr-19 21:30N 59°53' E 030°14'0 0.0
2017-Apr-19 21:00N 59°53' E 030°14'0 0.0
2017-Apr-19 20:30N 59°53' E 030°14'0 0.0
2017-Apr-19 20:00N 59°53' E 030°14'0 0.0
2017-Apr-19 19:30N 59°53' E 030°14'0 0.0
2017-Apr-19 19:00N 59°53' E 030°14'0 0.0
2017-Apr-19 18:30N 59°53' E 030°14'0 0.0
2017-Apr-19 18:00N 59°53' E 030°14'0 0.0
2017-Apr-19 17:30N 59°53' E 030°14'0 0.0
2017-Apr-19 17:00N 59°53' E 030°14'0 0.0
2017-Apr-19 16:30N 59°53' E 030°14'0 0.0
2017-Apr-19 16:00N 59°53' E 030°14'0 0.0
2017-Apr-19 15:30N 59°53' E 030°14'0 0.0
2017-Apr-19 15:00N 59°53' E 030°14'0 0.0
2017-Apr-19 14:30N 59°53' E 030°14'0 0.0
2017-Apr-19 13:30N 59°53' E 030°14'0 0.0
2017-Apr-19 12:59N 59°53' E 030°14'0 0.0
2017-Apr-19 12:30N 59°53' E 030°14'0 0.0
2017-Apr-19 12:00N 59°53' E 030°14'0 0.0
2017-Apr-19 11:30N 59°53' E 030°14'0 0.0
2017-Apr-19 11:00N 59°53' E 030°14'0 0.0
2017-Apr-19 10:31N 59°53' E 030°14'0 0.0
2017-Apr-19 10:01N 59°53' E 030°14'0 0.0
2017-Apr-19 09:31N 59°53' E 030°14'0 0.0
2017-Apr-19 09:01N 59°53' E 030°14'0 0.0
2017-Apr-19 08:30N 59°53' E 030°14'0 0.0
2017-Apr-19 08:00N 59°53' E 030°14'0 0.0
2017-Apr-19 07:30N 59°53' E 030°14'0 0.0
2017-Apr-19 07:01N 59°53' E 030°14'0 0.0
2017-Apr-19 06:31N 59°53' E 030°14'0 0.0
2017-Apr-19 06:01N 59°53' E 030°14'0 0.0
2017-Apr-19 05:31N 59°53' E 030°14'0 0.0
2017-Apr-19 05:01N 59°53' E 030°14'0 0.0
2017-Apr-19 04:31N 59°53' E 030°14'0 0.0
2017-Apr-19 04:01N 59°53' E 030°14'0 0.0
2017-Apr-19 03:31N 59°53' E 030°14'0 0.0
2017-Apr-19 03:00N 59°53' E 030°14'0 0.0
2017-Apr-19 02:30N 59°53' E 030°14'0 0.0
2017-Apr-19 02:00N 59°53' E 030°14'0 0.0
2017-Apr-19 01:30N 59°53' E 030°14'0 0.0
2017-Apr-19 01:00N 59°53' E 030°14'0 0.0
2017-Apr-19 00:30N 59°53' E 030°14'0 0.0
2017-Apr-19 00:00N 59°53' E 030°14'0 0.0
2017-Apr-18 23:30N 59°53' E 030°14'0 0.0
2017-Apr-18 23:00N 59°53' E 030°14'0 0.0
2017-Apr-18 22:30N 59°53' E 030°14'2 3.4
2017-Apr-18 22:00N 59°53' E 030°11'0 0.9
2017-Apr-18 21:30N 59°53' E 030°11'0 0.1
2017-Apr-18 21:00N 59°53' E 030°11'0 0.0
2017-Apr-18 20:30N 59°53' E 030°11'1 3.0
2017-Apr-18 20:00N 59°53' E 030°14'0 0.0
2017-Apr-18 19:30N 59°53' E 030°14'0 0.0
2017-Apr-18 19:01N 59°53' E 030°14'0 0.0
2017-Apr-18 18:30N 59°53' E 030°14'0 0.0
2017-Apr-18 18:00N 59°53' E 030°14'0 0.0
2017-Apr-18 17:30N 59°53' E 030°14'0 0.0
2017-Apr-18 17:00N 59°53' E 030°14'0 0.0
2017-Apr-18 16:30N 59°53' E 030°14'0 0.0
2017-Apr-18 16:00N 59°53' E 030°14'0 0.0
2017-Apr-18 15:30N 59°53' E 030°14'0 0.0
2017-Apr-18 14:59N 59°53' E 030°14'0 0.0
2017-Apr-18 14:00N 59°53' E 030°14'0 0.0
2017-Apr-18 13:30N 59°53' E 030°14'0 0.0
2017-Apr-18 13:00N 59°53' E 030°14'0 0.0
2017-Apr-18 12:30N 59°53' E 030°14'0 0.0
2017-Apr-18 12:00N 59°53' E 030°14'0 0.0
2017-Apr-18 11:30N 59°53' E 030°14'0 0.0
2017-Apr-18 11:00N 59°53' E 030°14'0 0.0
2017-Apr-18 10:30N 59°53' E 030°14'0 0.0
2017-Apr-18 10:00N 59°53' E 030°14'0 1.0
2017-Apr-18 09:30N 59°53' E 030°13'1 1.6
2017-Apr-18 09:00N 59°52' E 030°13'0 0.0
2017-Apr-18 08:30N 59°52' E 030°13'0 0.0
2017-Apr-18 08:00N 59°52' E 030°13'0 0.0
2017-Apr-18 07:31N 59°52' E 030°13'1 1.8
2017-Apr-18 07:00N 59°53' E 030°13'1 1.1
2017-Apr-18 06:31N 59°53' E 030°14'0 0.0
2017-Apr-18 06:00N 59°53' E 030°14'0 0.0
2017-Apr-18 05:30N 59°53' E 030°14'0 0.0
2017-Apr-18 05:01N 59°53' E 030°14'0 0.0
2017-Apr-18 04:30N 59°53' E 030°14'0 0.0
2017-Apr-18 04:00N 59°53' E 030°14'0 0.0
2017-Apr-18 03:30N 59°53' E 030°14'0 0.0
2017-Apr-18 03:00N 59°53' E 030°14'0 0.0
2017-Apr-18 02:30N 59°53' E 030°14'0 0.0
2017-Apr-18 02:00N 59°53' E 030°14'0 0.0
2017-Apr-18 01:30N 59°53' E 030°14'0 0.0
2017-Apr-18 01:00N 59°53' E 030°14'0 0.0
2017-Apr-18 00:30N 59°53' E 030°14'0 0.0
2017-Apr-18 00:00N 59°53' E 030°14'0 0.0
2017-Apr-17 23:30N 59°53' E 030°14'0 0.0
2017-Apr-17 23:00N 59°53' E 030°14'0 0.0
2017-Apr-17 22:30N 59°53' E 030°14'0 0.0
2017-Apr-17 22:00N 59°53' E 030°14'0 0.0
2017-Apr-17 21:30N 59°53' E 030°14'0 0.0
2017-Apr-17 21:00N 59°53' E 030°14'0 0.0
2017-Apr-17 20:30N 59°53' E 030°14'0 0.0
2017-Apr-17 20:00N 59°53' E 030°14'0 0.0
2017-Apr-17 19:30N 59°53' E 030°14'0 0.0
2017-Apr-17 19:00N 59°53' E 030°14'0 0.0
2017-Apr-17 18:30N 59°53' E 030°14'0 0.0
2017-Apr-17 18:00N 59°53' E 030°14'0 0.0
2017-Apr-17 17:30N 59°53' E 030°14'0 0.0
2017-Apr-17 17:00N 59°53' E 030°14'0 0.0
2017-Apr-17 16:30N 59°53' E 030°14'1 2.1
2017-Apr-17 16:00N 59°53' E 030°13'1 1.7
2017-Apr-17 15:30N 59°53' E 030°11'0 1.0
2017-Apr-17 15:00N 59°53' E 030°11'2 1.9
2017-Apr-17 14:00N 59°53' E 030°14'0 0.0
2017-Apr-17 13:30N 59°53' E 030°14'0 0.0
2017-Apr-17 13:00N 59°53' E 030°14'0 0.0
2017-Apr-17 12:30N 59°53' E 030°14'0 0.0
2017-Apr-17 12:00N 59°53' E 030°14'0 0.0
2017-Apr-17 11:30N 59°53' E 030°14'0 0.0
2017-Apr-17 11:00N 59°53' E 030°14'0 0.0
2017-Apr-17 10:30N 59°53' E 030°14'0 0.0
2017-Apr-17 10:00N 59°53' E 030°14'0 0.0
2017-Apr-17 09:30N 59°53' E 030°14'0 0.0
2017-Apr-17 09:00N 59°53' E 030°14'1 1.9
2017-Apr-17 08:30N 59°52' E 030°13'0 0.0
2017-Apr-17 08:00N 59°52' E 030°13'1 1.6
2017-Apr-17 07:30N 59°53' E 030°13'0 1.0
2017-Apr-17 07:00N 59°53' E 030°14'0 0.0
2017-Apr-17 06:30N 59°53' E 030°14'0 0.0
2017-Apr-17 06:00N 59°53' E 030°14'0 0.0
2017-Apr-17 05:30N 59°53' E 030°14'0 0.0
2017-Apr-17 05:00N 59°53' E 030°14'0 0.0
2017-Apr-17 04:30N 59°53' E 030°14'0 0.0
2017-Apr-17 04:00N 59°53' E 030°14'0 0.0
2017-Apr-17 03:29N 59°53' E 030°14'0 0.0
2017-Apr-17 03:00N 59°53' E 030°14'0 0.0
2017-Apr-17 02:30N 59°53' E 030°14'0 0.0
2017-Apr-17 02:01N 59°53' E 030°14'0 0.0
2017-Apr-17 01:31N 59°53' E 030°14'0 0.0
2017-Apr-17 01:00N 59°53' E 030°14'0 0.0
2017-Apr-17 00:31N 59°53' E 030°14'0 0.0
2017-Apr-17 00:01N 59°53' E 030°14'0 0.0
2017-Apr-16 23:30N 59°53' E 030°14'0 0.0
2017-Apr-16 23:00N 59°53' E 030°14'0 0.0
2017-Apr-16 22:31N 59°53' E 030°14'0 0.0
2017-Apr-16 22:01N 59°53' E 030°14'0 0.0
2017-Apr-16 21:31N 59°53' E 030°14'0 0.0
2017-Apr-16 21:00N 59°53' E 030°14'0 0.0
2017-Apr-16 20:31N 59°53' E 030°14'0 0.0
2017-Apr-16 19:59N 59°53' E 030°14'0 0.0
2017-Apr-16 19:29N 59°53' E 030°14'0 0.0
2017-Apr-16 19:01N 59°53' E 030°14'0 0.0
2017-Apr-16 18:30N 59°53' E 030°14'0 0.0
2017-Apr-16 18:01N 59°53' E 030°14'0 0.0
2017-Apr-16 17:30N 59°53' E 030°14'0 0.0
2017-Apr-16 17:00N 59°53' E 030°14'0 0.0
2017-Apr-16 16:30N 59°53' E 030°14'0 0.0
2017-Apr-16 16:00N 59°53' E 030°14'0 0.0
2017-Apr-16 15:30N 59°53' E 030°14'0 0.0
2017-Apr-16 15:00N 59°53' E 030°14'0 0.0
2017-Apr-16 14:30N 59°53' E 030°14'0 0.0
2017-Apr-16 13:30N 59°53' E 030°14'0 0.0
2017-Apr-16 13:00N 59°53' E 030°14'0 0.0
2017-Apr-16 12:30N 59°53' E 030°14'0 0.0
2017-Apr-16 12:00N 59°53' E 030°14'0 0.0
2017-Apr-16 11:30N 59°53' E 030°14'0 0.0
2017-Apr-16 11:00N 59°53' E 030°14'0 0.0
2017-Apr-16 10:29N 59°53' E 030°14'0 0.0
2017-Apr-16 10:00N 59°53' E 030°14'0 0.0
2017-Apr-16 09:30N 59°53' E 030°14'0 0.0
2017-Apr-16 09:00N 59°53' E 030°14'0 0.0
2017-Apr-16 08:30N 59°53' E 030°14'0 0.0
2017-Apr-16 08:00N 59°53' E 030°14'0 0.0
2017-Apr-16 07:30N 59°53' E 030°14'0 0.0
2017-Apr-16 07:00N 59°53' E 030°14'0 0.0
2017-Apr-16 06:31N 59°53' E 030°14'0 0.0
2017-Apr-16 06:01N 59°53' E 030°14'0 0.0
2017-Apr-16 05:31N 59°53' E 030°14'0 0.0
2017-Apr-16 05:00N 59°53' E 030°14'0 0.0
2017-Apr-16 04:30N 59°53' E 030°14'0 0.0
2017-Apr-16 04:01N 59°53' E 030°14'0 0.0
2017-Apr-16 03:30N 59°53' E 030°14'0 0.0
2017-Apr-16 03:00N 59°53' E 030°14'0 0.0
2017-Apr-16 02:30N 59°53' E 030°14'0 0.0
2017-Apr-16 01:59N 59°53' E 030°14'0 0.0
2017-Apr-16 01:30N 59°53' E 030°14'0 0.0
2017-Apr-16 00:59N 59°53' E 030°14'0 0.0
2017-Apr-16 00:30N 59°53' E 030°14'0 0.0
2017-Apr-16 00:00N 59°53' E 030°14'0 0.0
2017-Apr-15 23:30N 59°53' E 030°14'0 0.0
2017-Apr-15 23:00N 59°53' E 030°14'0 0.0
2017-Apr-15 22:30N 59°53' E 030°14'0 0.0
2017-Apr-15 22:00N 59°53' E 030°14'0 0.0
2017-Apr-15 21:30N 59°53' E 030°14'0 0.0
2017-Apr-15 21:00N 59°53' E 030°14'0 0.0
2017-Apr-15 20:30N 59°53' E 030°14'0 0.0
2017-Apr-15 19:59N 59°53' E 030°14'0 0.0
2017-Apr-15 19:27N 59°53' E 030°14'0 0.0
2017-Apr-15 19:00N 59°53' E 030°14'0 0.0
2017-Apr-15 18:30N 59°53' E 030°14'0 0.0
2017-Apr-15 18:00N 59°53' E 030°14'0 0.0
2017-Apr-15 17:30N 59°53' E 030°14'0 0.0
2017-Apr-15 17:00N 59°53' E 030°14'0 0.0
2017-Apr-15 16:30N 59°53' E 030°14'0 0.0
2017-Apr-15 16:00N 59°53' E 030°14'0 0.0
2017-Apr-15 15:30N 59°53' E 030°14'0 0.0
2017-Apr-15 15:00N 59°53' E 030°14'0 0.0
2017-Apr-15 14:00N 59°53' E 030°14'0 0.0
2017-Apr-15 13:30N 59°53' E 030°14'0 0.0
2017-Apr-15 13:00N 59°53' E 030°14'0 0.0
2017-Apr-15 12:28N 59°53' E 030°14'0 0.0
2017-Apr-15 12:00N 59°53' E 030°14'0 0.0
2017-Apr-15 11:30N 59°53' E 030°14'0 0.0
2017-Apr-15 10:57N 59°53' E 030°14'0 0.0
2017-Apr-15 10:30N 59°53' E 030°14'0 0.0
2017-Apr-15 10:00N 59°53' E 030°14'0 0.1
2017-Apr-15 09:30N 59°53' E 030°14'0 0.0
2017-Apr-15 09:00N 59°53' E 030°14'0 0.0
2017-Apr-15 08:30N 59°53' E 030°14'0 0.0
2017-Apr-15 08:00N 59°53' E 030°14'0 0.1
2017-Apr-15 07:30N 59°53' E 030°14'0 0.0
2017-Apr-15 07:00N 59°53' E 030°14'0 0.0
2017-Apr-15 06:30N 59°53' E 030°14'0 0.0
2017-Apr-15 06:00N 59°53' E 030°14'0 0.0
2017-Apr-15 05:27N 59°53' E 030°14'0 0.0
2017-Apr-15 05:00N 59°53' E 030°14'1 2.3
2017-Apr-15 04:30N 59°53' E 030°13'1 1.1
2017-Apr-15 04:00N 59°53' E 030°12'0 0.8
2017-Apr-15 03:29N 59°53' E 030°11'2 3.7
2017-Apr-15 03:00N 59°53' E 030°14'0 0.0
2017-Apr-15 02:30N 59°53' E 030°14'0 0.0
2017-Apr-15 02:00N 59°53' E 030°14'0 0.0
2017-Apr-15 01:27N 59°53' E 030°14'0 0.0
2017-Apr-15 01:00N 59°53' E 030°14'0 0.0
2017-Apr-15 00:30N 59°53' E 030°14'0 0.0
2017-Apr-15 00:00N 59°53' E 030°14'0 0.0
2017-Apr-14 23:30N 59°53' E 030°14'0 0.0
2017-Apr-14 23:00N 59°53' E 030°14'0 0.0
2017-Apr-14 22:30N 59°53' E 030°14'0 0.0
2017-Apr-14 22:00N 59°53' E 030°14'0 0.0
2017-Apr-14 21:30N 59°53' E 030°14'0 0.0
2017-Apr-14 21:00N 59°53' E 030°14'0 0.0
2017-Apr-14 20:28N 59°53' E 030°14'0 0.0
2017-Apr-14 20:00N 59°53' E 030°14'0 0.0
2017-Apr-14 19:30N 59°53' E 030°14'0 0.0
2017-Apr-14 19:00N 59°53' E 030°14'0 0.0
2017-Apr-14 18:28N 59°53' E 030°14'0 0.0
2017-Apr-14 18:00N 59°53' E 030°14'0 0.0
2017-Apr-14 17:30N 59°53' E 030°14'0 0.0
2017-Apr-14 16:55N 59°53' E 030°14'0 0.0
2017-Apr-14 16:31N 59°53' E 030°14'0 0.0
2017-Apr-14 15:58N 59°53' E 030°14'0 0.0
2017-Apr-14 15:31N 59°53' E 030°14'0 0.0
2017-Apr-14 15:00N 59°53' E 030°14'0 0.0
2017-Apr-14 14:31N 59°53' E 030°14'0 0.0
2017-Apr-14 13:30N 59°53' E 030°14'0 0.0
2017-Apr-14 13:00N 59°53' E 030°14'0 0.0
2017-Apr-14 12:30N 59°53' E 030°14'0 0.0
2017-Apr-14 12:00N 59°53' E 030°14'0 0.0
2017-Apr-14 11:30N 59°53' E 030°14'0 0.0
2017-Apr-14 11:00N 59°53' E 030°14'0 0.0
2017-Apr-14 10:29N 59°53' E 030°14'0 0.0
2017-Apr-14 09:59N 59°53' E 030°14'0 0.0
2017-Apr-14 09:30N 59°53' E 030°14'0 0.0
2017-Apr-14 09:00N 59°53' E 030°14'0 0.0
2017-Apr-14 08:30N 59°53' E 030°14'0 0.0
2017-Apr-14 08:00N 59°53' E 030°14'0 0.0
2017-Apr-14 07:30N 59°53' E 030°14'0 0.0
2017-Apr-14 07:00N 59°53' E 030°14'0 0.0
2017-Apr-14 06:30N 59°53' E 030°14'0 0.0
2017-Apr-14 06:00N 59°53' E 030°14'0 0.0
2017-Apr-14 05:30N 59°53' E 030°14'0 0.0
2017-Apr-14 05:00N 59°53' E 030°14'0 0.0
2017-Apr-14 04:30N 59°53' E 030°14'0 0.0
2017-Apr-14 04:00N 59°53' E 030°14'0 0.0
2017-Apr-14 03:30N 59°53' E 030°14'0 0.0
2017-Apr-14 03:00N 59°53' E 030°14'0 0.0
2017-Apr-14 02:30N 59°53' E 030°14'0 0.0
2017-Apr-14 02:00N 59°53' E 030°14'0 0.0
2017-Apr-14 01:30N 59°53' E 030°14'0 0.0
2017-Apr-14 01:00N 59°53' E 030°14'0 0.0
2017-Apr-14 00:30N 59°53' E 030°14'0 0.0
2017-Apr-14 00:00N 59°53' E 030°14'0 0.0
2017-Apr-13 23:30N 59°53' E 030°14'0 0.0
2017-Apr-13 23:00N 59°53' E 030°14'0 0.0
2017-Apr-13 22:30N 59°53' E 030°14'0 0.0
2017-Apr-13 22:00N 59°53' E 030°14'0 0.0
2017-Apr-13 21:30N 59°53' E 030°14'  

Dump ship's entire track history